Tancred — LALX4 — position and weather

sailwx.info

Track history (hours):
 
Tides and Currents Weather Stations Pressure Air Temp Water Temp Dewpoint Dewpoint Depression Visibility Wind Speed Wind Dir Waves Ship Positions

Tancred

Last reported at 2014-Aug-22 22:13 UTC. Time now 2014-Sep-01 07:31 UTC.
Position N 38°53' E 118°09'.
Warning: this ship's position is 9 days out of date.

Length 190 m; draft 8.6 m.

Type: Cargo ship. MMSI: 258787000.

Date/timePositionNaut miles runAvg speedWind from/ knotsBaromVisibWave heightAir tempDewpointWater temp
2014-Aug-22 22:13N 38°53' E 118°09'811.7
2014-Aug-22 21:33N 38°56' E 117°60'1010.4
2014-Aug-22 20:33N 38°59' E 117°47'2 1.7
2014-Aug-22 19:22N 39°01' E 117°46'0 0.0
2014-Aug-22 18:31N 39°01' E 117°46'0 0.0
2014-Aug-22 17:31N 39°01' E 117°46'0 0.0
2014-Aug-22 16:31N 39°01' E 117°46'0 0.0
2014-Aug-22 15:31N 39°01' E 117°46'0 0.0
2014-Aug-22 14:31N 39°01' E 117°46'0 0.0
2014-Aug-22 13:31N 39°01' E 117°46'0 0.0
2014-Aug-22 12:31N 39°01' E 117°46'0 0.0
2014-Aug-22 11:28N 39°01' E 117°46'0 0.0
2014-Aug-22 10:31N 39°01' E 117°46'0 0.0
2014-Aug-22 09:28N 39°01' E 117°46'0 0.0
2014-Aug-22 08:25N 39°01' E 117°46'0 0.0
2014-Aug-22 07:31N 39°01' E 117°46'0 0.0
2014-Aug-22 06:31N 39°01' E 117°46'0 0.0
2014-Aug-22 05:31N 39°01' E 117°46'0 0.0
2014-Aug-22 04:31N 39°01' E 117°46'0 0.0
2014-Aug-22 03:31N 39°01' E 117°46'0 0.0
2014-Aug-22 02:31N 39°01' E 117°46'0 0.0
2014-Aug-22 01:31N 39°01' E 117°46'0 0.0
2014-Aug-22 00:31N 39°01' E 117°46'0 0.0
2014-Aug-21 23:31N 39°01' E 117°46'0 0.0
2014-Aug-21 22:31N 39°01' E 117°46'0 0.0
2014-Aug-21 21:31N 39°01' E 117°46'0 0.0
2014-Aug-21 20:31N 39°01' E 117°46'0 0.0
2014-Aug-21 19:31N 39°01' E 117°46'0 0.0
2014-Aug-21 18:31N 39°01' E 117°46'0 0.0
2014-Aug-21 17:31N 39°01' E 117°46'0 0.0
2014-Aug-21 16:31N 39°01' E 117°46'0 0.4
2014-Aug-21 15:33N 39°01' E 117°47'9 9.0
2014-Aug-21 14:33N 38°57' E 117°57'5 4.7
2014-Aug-21 13:33N 38°57' E 118°03'0 0.1
2014-Aug-21 12:21N 38°57' E 118°03'0 0.0
2014-Aug-21 11:33N 38°57' E 118°03'0 0.0
2014-Aug-21 10:30N 38°57' E 118°03'0 0.0
2014-Aug-21 09:33N 38°57' E 118°03'0 0.0
2014-Aug-21 08:33N 38°57' E 118°03'0 0.0
2014-Aug-21 07:33N 38°57' E 118°03'0 0.0
2014-Aug-21 06:33N 38°57' E 118°03'0 0.0
2014-Aug-21 05:30N 38°57' E 118°03'0 0.0
2014-Aug-21 04:33N 38°57' E 118°03'1 1.2
2014-Aug-21 03:34N 38°56' E 118°04'13213.1
2014-Aug-20 17:29N 38°39' E 120°53'8 6.6
2014-Aug-20 16:21N 38°34' E 121°00'6 7.4
2014-Aug-20 15:34N 38°31' E 121°06'10 9.8
2014-Aug-20 14:33N 38°27' E 121°18'1414.3
2014-Aug-20 13:34N 38°21' E 121°34'1414.3
2014-Aug-20 12:34N 38°15' E 121°51'1513.8
2014-Aug-20 11:29N 38°09' E 122°08'1313.6
2014-Aug-20 10:31N 38°05' E 122°24'1313.6
2014-Aug-20 09:33N 37°57' E 122°37'1414.0
2014-Aug-20 08:33N 37°52' E 122°54'  
2014-Aug-17 18:11N 22°60' E 119°37'1316.8
2014-Aug-17 17:25N 22°48' E 119°30'  
2014-Aug-13 15:28N 01°15' E 104°09'1112.6
2014-Aug-13 14:33N 01°15' E 103°58'3 3.2
2014-Aug-13 13:33N 01°17' E 103°56'0 0.1
2014-Aug-13 12:30N 01°17' E 103°56'0 0.0
2014-Aug-13 11:30N 01°17' E 103°56'0 0.0
2014-Aug-13 10:33N 01°17' E 103°56'0 0.0
2014-Aug-13 09:30N 01°17' E 103°56'0 0.0
2014-Aug-13 08:33N 01°17' E 103°56'0 0.0
2014-Aug-13 07:33N 01°17' E 103°56'0 0.0
2014-Aug-13 06:33N 01°17' E 103°56'0 0.1
2014-Aug-13 05:33N 01°17' E 103°56'0 0.0
2014-Aug-13 04:33N 01°17' E 103°56'0 0.0
2014-Aug-13 03:33N 01°17' E 103°56'0 0.2
2014-Aug-13 02:33N 01°17' E 103°56'4 4.0
2014-Aug-13 01:33N 01°15' E 103°59'6 6.3
2014-Aug-13 00:33N 01°12' E 103°53'1110.0
2014-Aug-12 23:28N 01°06' E 103°44'  
Track history (hours):
 
Tides and Currents Weather Stations Pressure Air Temp Water Temp Dewpoint Dewpoint Depression Visibility Wind Speed Wind Dir Waves Ship Positions

Tancred

Last reported at 2014-Aug-22 22:13 UTC. Time now 2014-Sep-01 07:31 UTC.
Position N 38°53' E 118°09'.
Warning: this ship's position is 9 days out of date.

Length 190 m; draft 8.6 m.

Type: Cargo ship. MMSI: 258787000.

Date/timePositionNaut miles runAvg speedWind from/ knotsBaromVisibWave heightAir tempDewpointWater temp
2014-Aug-22 22:13N 38°53' E 118°09'811.7
2014-Aug-22 21:33N 38°56' E 117°60'1010.4
2014-Aug-22 20:33N 38°59' E 117°47'2 1.7
2014-Aug-22 19:22N 39°01' E 117°46'0 0.0
2014-Aug-22 18:31N 39°01' E 117°46'0 0.0
2014-Aug-22 17:31N 39°01' E 117°46'0 0.0
2014-Aug-22 16:31N 39°01' E 117°46'0 0.0
2014-Aug-22 15:31N 39°01' E 117°46'0 0.0
2014-Aug-22 14:31N 39°01' E 117°46'0 0.0
2014-Aug-22 13:31N 39°01' E 117°46'0 0.0
2014-Aug-22 12:31N 39°01' E 117°46'0 0.0
2014-Aug-22 11:28N 39°01' E 117°46'0 0.0
2014-Aug-22 10:31N 39°01' E 117°46'0 0.0
2014-Aug-22 09:28N 39°01' E 117°46'0 0.0
2014-Aug-22 08:25N 39°01' E 117°46'0 0.0
2014-Aug-22 07:31N 39°01' E 117°46'0 0.0
2014-Aug-22 06:31N 39°01' E 117°46'0 0.0
2014-Aug-22 05:31N 39°01' E 117°46'0 0.0
2014-Aug-22 04:31N 39°01' E 117°46'0 0.0
2014-Aug-22 03:31N 39°01' E 117°46'0 0.0
2014-Aug-22 02:31N 39°01' E 117°46'0 0.0
2014-Aug-22 01:31N 39°01' E 117°46'0 0.0
2014-Aug-22 00:31N 39°01' E 117°46'0 0.0
2014-Aug-21 23:31N 39°01' E 117°46'0 0.0
2014-Aug-21 22:31N 39°01' E 117°46'0 0.0
2014-Aug-21 21:31N 39°01' E 117°46'0 0.0
2014-Aug-21 20:31N 39°01' E 117°46'0 0.0
2014-Aug-21 19:31N 39°01' E 117°46'0 0.0
2014-Aug-21 18:31N 39°01' E 117°46'0 0.0
2014-Aug-21 17:31N 39°01' E 117°46'0 0.0
2014-Aug-21 16:31N 39°01' E 117°46'0 0.4
2014-Aug-21 15:33N 39°01' E 117°47'9 9.0
2014-Aug-21 14:33N 38°57' E 117°57'5 4.7
2014-Aug-21 13:33N 38°57' E 118°03'0 0.1
2014-Aug-21 12:21N 38°57' E 118°03'0 0.0
2014-Aug-21 11:33N 38°57' E 118°03'0 0.0
2014-Aug-21 10:30N 38°57' E 118°03'0 0.0
2014-Aug-21 09:33N 38°57' E 118°03'0 0.0
2014-Aug-21 08:33N 38°57' E 118°03'0 0.0
2014-Aug-21 07:33N 38°57' E 118°03'0 0.0
2014-Aug-21 06:33N 38°57' E 118°03'0 0.0
2014-Aug-21 05:30N 38°57' E 118°03'0 0.0
2014-Aug-21 04:33N 38°57' E 118°03'1 1.2
2014-Aug-21 03:34N 38°56' E 118°04'13213.1
2014-Aug-20 17:29N 38°39' E 120°53'8 6.6
2014-Aug-20 16:21N 38°34' E 121°00'6 7.4
2014-Aug-20 15:34N 38°31' E 121°06'10 9.8
2014-Aug-20 14:33N 38°27' E 121°18'1414.3
2014-Aug-20 13:34N 38°21' E 121°34'1414.3
2014-Aug-20 12:34N 38°15' E 121°51'1513.8
2014-Aug-20 11:29N 38°09' E 122°08'1313.6
2014-Aug-20 10:31N 38°05' E 122°24'1313.6
2014-Aug-20 09:33N 37°57' E 122°37'1414.0
2014-Aug-20 08:33N 37°52' E 122°54'  
2014-Aug-17 18:11N 22°60' E 119°37'1316.8
2014-Aug-17 17:25N 22°48' E 119°30'  
2014-Aug-13 15:28N 01°15' E 104°09'1112.6
2014-Aug-13 14:33N 01°15' E 103°58'3 3.2
2014-Aug-13 13:33N 01°17' E 103°56'0 0.1
2014-Aug-13 12:30N 01°17' E 103°56'0 0.0
2014-Aug-13 11:30N 01°17' E 103°56'0 0.0
2014-Aug-13 10:33N 01°17' E 103°56'0 0.0
2014-Aug-13 09:30N 01°17' E 103°56'0 0.0
2014-Aug-13 08:33N 01°17' E 103°56'0 0.0
2014-Aug-13 07:33N 01°17' E 103°56'0 0.0
2014-Aug-13 06:33N 01°17' E 103°56'0 0.1
2014-Aug-13 05:33N 01°17' E 103°56'0 0.0
2014-Aug-13 04:33N 01°17' E 103°56'0 0.0
2014-Aug-13 03:33N 01°17' E 103°56'0 0.2
2014-Aug-13 02:33N 01°17' E 103°56'4 4.0
2014-Aug-13 01:33N 01°15' E 103°59'6 6.3
2014-Aug-13 00:33N 01°12' E 103°53'1110.0
2014-Aug-12 23:28N 01°06' E 103°44'  

Dump ship's entire track history